This is the latest recevied weather packets stored in our database for station/object RUSSARO. If no packets are shown the sender has not sent any weather packets the latest 10 day(s).
| Time | Temp. | Humidity | Pressure | Rain* | Wind** | Luminosity | Snow |
|---|---|---|---|---|---|---|---|
| 1777582019 | 6.11° C | 86% | 1022.3 hPa | 0 mm | - | - | - |
| 1777580818 | 7.22° C | 82% | 1022.3 hPa | 0 mm | - | - | - |
| 1777579618 | 7.22° C | 83% | 1022.3 hPa | 0 mm | - | - | - |
| 1777578418 | 7.22° C | 82% | 1022.4 hPa | 0 mm | - | - | - |
| 1777577218 | 7.22° C | 81% | 1022.3 hPa | 0 mm | - | - | - |
| 1777576018 | 7.78° C | 79% | 1022.2 hPa | 0 mm | - | - | - |
| 1777574818 | 7.78° C | 77% | 1022.1 hPa | 0 mm | - | - | - |
| 1777573618 | 7.78° C | 77% | 1022 hPa | 0 mm | - | - | - |
| 1777572417 | 7.78° C | 78% | 1022 hPa | 0 mm | - | - | - |
| 1777571218 | 8.33° C | 76% | 1021.8 hPa | 0 mm | - | - | - |
| 1777570018 | 8.33° C | 75% | 1021.6 hPa | 0 mm | - | - | - |
| 1777568818 | 8.89° C | 72% | 1021.5 hPa | 0 mm | - | - | - |
| 1777567617 | 9.44° C | 70% | 1021.6 hPa | 0 mm | - | - | - |
| 1777566418 | 8.89° C | 72% | 1021.6 hPa | 0 mm | - | - | - |
| 1777565217 | 9.44° C | 71% | 1021.6 hPa | 0 mm | - | - | - |
| 1777564017 | 9.44° C | 69% | 1021.7 hPa | 0 mm | - | - | - |
| 1777562817 | 10° C | 67% | 1021.7 hPa | 0 mm | - | - | - |
| 1777561617 | 10.56° C | 65% | 1021.8 hPa | 0 mm | - | - | - |
| 1777560417 | 10.56° C | 67% | 1021.9 hPa | 0 mm | - | - | - |
| 1777559217 | 10° C | 68% | 1022 hPa | 0 mm | - | - | - |
| 1777558017 | 10° C | 68% | 1022 hPa | 0 mm | - | - | - |
| 1777556817 | 10° C | 69% | 1022.1 hPa | 0 mm | - | - | - |
| 1777555617 | 10° C | 68% | 1022.3 hPa | 0 mm | - | - | - |
| 1777554416 | 10.56° C | 67% | 1022.3 hPa | 0 mm | - | - | - |
| 1777553216 | 11.11° C | 66% | 1022.4 hPa | 0 mm | - | - | - |
* Rain latest hour (hover to see other rain measurements)
** Current wind speed in m/s (hover to see current wind gust speed)